Time;durP1;ratioP1;P1;durP2;ratioP2;P2;SDS_P1;SDS_P2;PMS_P1;PMS_P2;Temp;Humidity;BMP_temperature;BMP_pressure;BME280_temperature;BME280_humidity;BME280_pressure;Samples;Min_cycle;Max_cycle;Signal;HPM_P1;HPM_P2
2022/10/04 00:01:09;;;;;;;4.87;3.93;;;10.70;99.90;;;;;;5029450;28;20435;-37
2022/10/04 00:04:00;;;;;;;10.77;4.93;;;10.70;99.90;;;;;;5029079;28;20443;-37
2022/10/04 00:06:26;;;;;;;7.13;4.10;;;10.70;99.90;;;;;;5029502;28;20519;-37
2022/10/04 00:09:06;;;;;;;6.17;4.63;;;10.80;99.90;;;;;;5029645;28;20418;-37
2022/10/04 00:11:35;;;;;;;8.20;5.13;;;10.80;99.90;;;;;;5029759;28;21048;-37
2022/10/04 00:14:19;;;;;;;7.30;4.70;;;10.80;99.90;;;;;;5028938;28;20465;-38
2022/10/04 00:16:46;;;;;;;4.60;4.20;;;10.70;99.90;;;;;;5029466;28;20428;-37
2022/10/04 00:19:14;;;;;;;8.50;5.70;;;10.90;99.90;;;;;;5029397;28;20424;-37
2022/10/04 00:21:55;;;;;;;9.30;6.13;;;11.00;99.90;;;;;;5039343;28;20784;-37
2022/10/04 00:24:23;;;;;;;5.13;4.63;;;11.10;99.90;;;;;;5032760;28;20417;-37
2022/10/04 00:26:49;;;;;;;9.10;4.60;;;11.10;99.90;;;;;;5032113;28;20413;-37
2022/10/04 00:29:31;;;;;;;6.63;4.63;;;11.20;99.90;;;;;;5033295;28;21023;-37
2022/10/04 00:32:25;;;;;;;7.53;6.33;;;11.10;99.90;;;;;;5033078;28;20194;-37
2022/10/04 00:34:52;;;;;;;5.53;4.60;;;11.10;99.90;;;;;;5020393;28;20505;-38
2022/10/04 00:37:21;;;;;;;7.83;5.37;;;11.10;99.90;;;;;;5020283;28;20424;-37
2022/10/04 00:40:01;;;;;;;5.40;5.00;;;11.20;99.90;;;;;;5032826;28;20437;-37
2022/10/04 00:42:46;;;;;;;6.67;5.30;;;11.30;99.90;;;;;;5033021;28;20462;-37
2022/10/04 00:45:34;;;;;;;5.97;4.97;;;11.30;99.90;;;;;;5033072;28;20474;-37
2022/10/04 00:48:29;;;;;;;9.00;5.50;;;11.30;99.90;;;;;;5032946;28;20425;-37
2022/10/04 00:51:18;;;;;;;5.87;5.23;;;11.30;99.90;;;;;;5032614;28;20424;-37
2022/10/04 00:53:52;;;;;;;6.03;5.00;;;11.20;99.90;;;;;;5032289;28;20433;-37
2022/10/04 00:56:36;;;;;;;6.03;4.67;;;11.30;99.90;;;;;;5032545;28;20413;-37
2022/10/04 00:59:28;;;;;;;6.13;4.13;;;11.20;99.90;;;;;;5033049;28;20540;-37
2022/10/04 01:02:13;;;;;;;7.37;5.23;;;11.20;99.90;;;;;;5029469;28;20595;-37
2022/10/04 01:05:10;;;;;;;9.40;5.37;;;11.30;99.90;;;;;;5032081;28;20439;-37
2022/10/04 01:07:41;;;;;;;5.17;4.63;;;11.30;99.90;;;;;;5019428;28;20479;-37
2022/10/04 01:10:16;;;;;;;7.43;5.13;;;11.20;99.90;;;;;;5031436;28;20425;-37
2022/10/04 01:12:56;;;;;;;6.53;5.13;;;11.20;99.90;;;;;;5031917;28;20910;-37
2022/10/04 01:15:41;;;;;;;7.73;5.07;;;11.30;99.90;;;;;;5032124;28;20511;-37
2022/10/04 01:18:19;;;;;;;6.13;4.90;;;11.30;99.90;;;;;;5032559;28;20413;-37
2022/10/04 01:20:53;;;;;;;5.53;5.00;;;11.30;99.90;;;;;;5039268;28;20451;-37
2022/10/04 01:23:44;;;;;;;9.77;5.60;;;11.30;99.90;;;;;;5031847;28;20848;-37
2022/10/04 01:26:25;;;;;;;10.57;5.73;;;11.30;99.90;;;;;;5032225;28;21086;-37
2022/10/04 01:28:52;;;;;;;7.23;5.80;;;11.30;99.90;;;;;;5032219;28;20455;-37
2022/10/04 01:31:18;;;;;;;5.53;5.03;;;11.40;99.90;;;;;;5032025;28;20426;-37
2022/10/04 01:33:45;;;;;;;13.60;7.70;;;11.30;99.90;;;;;;5030544;28;20467;-37
2022/10/04 01:36:11;;;;;;;7.80;6.10;;;11.30;99.90;;;;;;5031857;28;20430;-37
2022/10/04 01:38:37;;;;;;;10.00;5.80;;;11.30;99.90;;;;;;5031997;28;20433;-37
2022/10/04 01:41:06;;;;;;;7.73;5.80;;;11.30;99.90;;;;;;5032074;28;20532;-37
2022/10/04 01:43:36;;;;;;;7.30;5.40;;;11.30;99.90;;;;;;5031330;28;20425;-37
2022/10/04 01:46:09;;;;;;;6.37;5.43;;;11.40;99.90;;;;;;5031937;28;20417;-37
2022/10/04 01:48:37;;;;;;;6.10;5.40;;;11.40;99.90;;;;;;5031577;28;20520;-37
2022/10/04 01:51:12;;;;;;;10.57;5.10;;;11.40;99.90;;;;;;5031854;28;20422;-37
2022/10/04 01:53:50;;;;;;;9.43;5.50;;;11.30;99.90;;;;;;5031232;28;20427;-37
2022/10/04 01:56:23;;;;;;;8.40;5.90;;;11.30;99.90;;;;;;5031259;28;20435;-37
2022/10/04 01:58:53;;;;;;;9.00;5.70;;;11.30;99.90;;;;;;5031646;28;20422;-37
2022/10/04 02:01:22;;;;;;;7.80;5.63;;;11.40;99.90;;;;;;5031766;28;20432;-37
2022/10/04 02:03:58;;;;;;;6.80;5.93;;;11.40;99.90;;;;;;5030773;28;21054;-37
2022/10/04 02:06:24;;;;;;;6.43;5.30;;;11.40;99.90;;;;;;5030384;28;20453;-37
2022/10/04 02:08:56;;;;;;;6.63;6.00;;;11.40;99.90;;;;;;5031577;28;20432;-37
2022/10/04 02:11:23;;;;;;;5.77;5.17;;;11.50;99.90;;;;;;5031440;28;20892;-37
2022/10/04 02:13:52;;;;;;;10.03;6.20;;;11.40;99.90;;;;;;5030632;28;20969;-37
2022/10/04 02:16:20;;;;;;;6.70;5.50;;;11.50;99.90;;;;;;5031380;28;20425;-37
2022/10/04 02:18:46;;;;;;;10.00;6.53;;;11.40;99.90;;;;;;5031134;28;20425;-37
2022/10/04 02:21:14;;;;;;;6.70;5.97;;;11.40;99.90;;;;;;5038297;28;20448;-37
2022/10/04 02:23:41;;;;;;;5.97;5.37;;;11.40;99.90;;;;;;5030585;28;20421;-37
2022/10/04 02:26:08;;;;;;;6.83;5.80;;;11.40;99.90;;;;;;5030921;28;20413;-37
2022/10/04 02:28:35;;;;;;;8.07;5.57;;;11.30;99.90;;;;;;5031290;28;20451;-37
2022/10/04 02:33:50;;;;;;;8.80;5.90;;;11.40;99.90;;;;;;5030119;28;20427;-38
2022/10/04 02:36:17;;;;;;;7.40;5.80;;;11.40;99.90;;;;;;5030098;28;20425;-37
2022/10/04 02:39:01;;;;;;;7.40;5.40;;;11.40;99.90;;;;;;5029897;28;20433;-37
2022/10/04 02:41:40;;;;;;;5.77;5.27;;;11.30;99.90;;;;;;5030799;28;20429;-37
2022/10/04 02:44:28;;;;;;;10.40;5.60;;;11.20;99.90;;;;;;5029730;28;20429;-37
2022/10/04 02:47:20;;;;;;;9.10;5.73;;;11.10;99.90;;;;;;5030228;28;20547;-37
2022/10/04 02:49:53;;;;;;;6.77;5.20;;;11.00;99.90;;;;;;5030586;28;20520;-37
2022/10/04 02:52:22;;;;;;;8.47;5.67;;;11.00;99.90;;;;;;5030564;28;20436;-37
2022/10/04 02:55:01;;;;;;;8.10;5.77;;;11.00;99.90;;;;;;5028476;28;20456;-37
2022/10/04 02:57:30;;;;;;;5.90;5.30;;;11.00;99.90;;;;;;5030463;28;20948;-38
2022/10/04 03:00:14;;;;;;;7.03;5.67;;;10.90;99.90;;;;;;5030457;28;20429;-38
2022/10/04 03:02:40;;;;;;;10.70;5.73;;;10.90;99.90;;;;;;5029908;28;21182;-37
2022/10/04 03:05:10;;;;;;;8.43;5.40;;;11.00;99.90;;;;;;5030255;28;20445;-37
2022/10/04 03:07:38;;;;;;;7.90;5.20;;;11.00;99.90;;;;;;5030375;28;20463;-38
2022/10/04 03:10:12;;;;;;;6.13;5.10;;;11.10;99.90;;;;;;5030226;28;20485;-37
2022/10/04 03:12:41;;;;;;;6.00;5.17;;;11.00;99.90;;;;;;5029990;28;20468;-37
2022/10/04 03:15:10;;;;;;;8.50;5.23;;;10.90;99.90;;;;;;5030225;28;20610;-38
2022/10/04 03:17:38;;;;;;;8.13;4.97;;;10.90;99.90;;;;;;5030310;28;20421;-38
2022/10/04 03:20:05;;;;;;;6.17;5.13;;;10.90;99.90;;;;;;5035806;28;20432;-37
2022/10/04 03:22:31;;;;;;;7.60;5.47;;;11.00;99.90;;;;;;5031233;28;20437;-37
2022/10/04 03:24:57;;;;;;;9.20;5.80;;;11.00;99.90;;;;;;5029704;28;20444;-37
2022/10/04 03:27:27;;;;;;;6.13;5.17;;;10.90;99.90;;;;;;5030227;28;20182;-38
2022/10/04 03:29:54;;;;;;;5.67;4.93;;;10.80;99.90;;;;;;5030096;28;20425;-37
2022/10/04 03:32:20;;;;;;;6.00;4.90;;;10.80;99.90;;;;;;5029846;28;20482;-37
2022/10/04 03:35:01;;;;;;;4.80;4.33;;;10.80;99.90;;;;;;5029332;28;20492;-38
2022/10/04 03:37:31;;;;;;;5.30;4.80;;;11.00;99.90;;;;;;5030156;28;20421;-37
2022/10/04 03:39:58;;;;;;;7.20;4.97;;;11.00;99.90;;;;;;5028707;28;20459;-37
2022/10/04 03:42:33;;;;;;;6.10;5.30;;;11.00;99.90;;;;;;5029831;28;20429;-37
2022/10/04 03:45:04;;;;;;;11.13;6.07;;;11.00;99.90;;;;;;5029499;28;20424;-37
2022/10/04 03:47:34;;;;;;;5.83;4.97;;;11.10;99.90;;;;;;5029883;28;20514;-37
2022/10/04 03:50:11;;;;;;;9.60;5.17;;;11.10;99.90;;;;;;5030070;28;20922;-37
2022/10/04 03:52:37;;;;;;;7.23;4.63;;;11.20;99.90;;;;;;5029492;28;20429;-37
2022/10/04 03:55:07;;;;;;;5.83;4.73;;;11.20;99.90;;;;;;5028198;28;20507;-37
2022/10/04 03:57:35;;;;;;;6.60;5.27;;;11.10;99.90;;;;;;5033807;28;20457;-37
2022/10/04 04:00:04;;;;;;;7.60;4.70;;;11.00;99.90;;;;;;5033919;28;20436;-37
2022/10/04 04:02:50;;;;;;;8.10;5.07;;;10.90;99.90;;;;;;5033618;28;20432;-37
2022/10/04 04:05:25;;;;;;;6.57;5.77;;;10.80;99.90;;;;;;5032582;28;20453;-37
2022/10/04 04:08:03;;;;;;;6.37;5.40;;;10.80;99.90;;;;;;5033736;28;20481;-37
2022/10/04 04:10:33;;;;;;;8.57;5.57;;;10.80;99.90;;;;;;5033773;28;20448;-37
2022/10/04 04:13:40;;;;;;;10.70;5.53;;;10.90;99.90;;;;;;5033140;28;20490;-37
2022/10/04 04:16:08;;;;;;;5.63;4.80;;;11.00;99.90;;;;;;5022923;28;20527;-37
2022/10/04 04:18:39;;;;;;;9.20;4.60;;;10.90;99.90;;;;;;5033378;28;20429;-37
2022/10/04 04:21:06;;;;;;;8.97;5.40;;;10.90;99.90;;;;;;5040887;28;20529;-37
2022/10/04 04:23:38;;;;;;;9.17;5.07;;;10.90;99.90;;;;;;5032778;28;20928;-37
2022/10/04 04:26:24;;;;;;;5.33;4.23;;;10.80;99.90;;;;;;5033602;28;20523;-37
2022/10/04 04:29:15;;;;;;;5.60;4.60;;;10.80;99.90;;;;;;5033504;28;20779;-37
2022/10/04 04:32:01;;;;;;;4.63;4.17;;;10.70;99.90;;;;;;5032425;28;20465;-37
2022/10/04 04:34:30;;;;;;;8.00;4.93;;;10.70;99.90;;;;;;5032657;28;20520;-37
2022/10/04 04:36:59;;;;;;;9.83;5.67;;;10.70;99.90;;;;;;5033178;28;20788;-37
2022/10/04 04:39:39;;;;;;;8.30;5.13;;;10.70;99.90;;;;;;5033480;28;20460;-37
2022/10/04 04:42:16;;;;;;;4.70;4.30;;;10.70;99.90;;;;;;5033177;28;20432;-37
2022/10/04 04:45:05;;;;;;;6.40;4.70;;;10.70;99.90;;;;;;5032793;28;20829;-37
2022/10/04 04:47:39;;;;;;;6.60;4.90;;;10.70;99.90;;;;;;5033065;28;20425;-37
2022/10/04 04:50:19;;;;;;;5.30;4.70;;;10.80;99.90;;;;;;5033321;28;20790;-37
2022/10/04 04:52:52;;;;;;;6.90;4.77;;;10.70;99.90;;;;;;5021274;28;20544;-37
2022/10/04 04:55:24;;;;;;;7.07;4.80;;;10.80;99.90;;;;;;5024032;28;20508;-37
2022/10/04 04:57:54;;;;;;;6.03;5.43;;;10.60;99.90;;;;;;5023880;28;20515;-37
2022/10/04 05:00:27;;;;;;;6.20;5.33;;;10.60;99.90;;;;;;5032431;28;20460;-37
2022/10/04 05:02:55;;;;;;;7.23;5.47;;;10.60;99.90;;;;;;5031993;28;20972;-37
2022/10/04 05:05:29;;;;;;;5.20;4.70;;;10.70;99.90;;;;;;5032577;28;20510;-37
2022/10/04 05:08:12;;;;;;;7.40;4.63;;;10.70;99.90;;;;;;5032292;28;20472;-38
2022/10/04 05:11:00;;;;;;;9.37;5.57;;;10.90;99.90;;;;;;5032485;28;20520;-37
2022/10/04 05:13:36;;;;;;;5.97;5.37;;;10.80;99.90;;;;;;5031650;28;20551;-37
2022/10/04 05:16:01;;;;;;;5.87;5.27;;;10.80;99.90;;;;;;5031132;28;20472;-37
2022/10/04 05:18:31;;;;;;;8.40;5.13;;;10.80;99.90;;;;;;5032480;28;21035;-37
2022/10/04 05:21:07;;;;;;;6.70;5.97;;;10.80;99.90;;;;;;5038916;28;20182;-37
2022/10/04 05:23:34;;;;;;;6.53;5.80;;;10.70;99.90;;;;;;5031764;28;20459;-37
2022/10/04 05:26:03;;;;;;;6.90;6.17;;;10.70;99.90;;;;;;5031172;28;20433;-37
2022/10/04 05:28:30;;;;;;;6.13;5.20;;;10.70;99.90;;;;;;5032236;28;20437;-37
2022/10/04 05:31:27;;;;;;;8.53;5.30;;;10.70;99.90;;;;;;5031115;28;20429;-37
2022/10/04 05:33:59;;;;;;;7.90;5.37;;;10.70;99.90;;;;;;5031407;28;20432;-37
2022/10/04 05:36:45;;;;;;;7.37;5.53;;;10.70;99.90;;;;;;5032011;28;20418;-37
2022/10/04 05:39:18;;;;;;;8.13;5.47;;;10.80;99.90;;;;;;5032190;28;20420;-38
2022/10/04 05:42:11;;;;;;;5.40;4.90;;;10.80;99.90;;;;;;5032194;28;20425;-37
2022/10/04 05:44:57;;;;;;;5.90;4.77;;;10.80;99.90;;;;;;5031424;28;20886;-37
2022/10/04 05:47:29;;;;;;;7.43;5.20;;;10.80;99.90;;;;;;5031218;28;20425;-37
2022/10/04 05:49:56;;;;;;;5.67;4.73;;;10.80;99.90;;;;;;5031775;28;20421;-37
2022/10/04 05:52:29;;;;;;;6.50;4.90;;;10.80;99.90;;;;;;5031500;28;20464;-37
2022/10/04 05:55:16;;;;;;;11.20;6.30;;;10.80;99.90;;;;;;5030399;28;20492;-37
2022/10/04 05:57:42;;;;;;;7.30;4.87;;;10.80;99.90;;;;;;5030638;28;20431;-37
2022/10/04 06:00:19;;;;;;;7.27;4.93;;;10.80;99.90;;;;;;5029389;28;20421;-37
2022/10/04 06:02:57;;;;;;;6.03;4.63;;;10.70;99.90;;;;;;5030640;28;20178;-37
2022/10/04 06:05:31;;;;;;;6.70;4.83;;;10.70;99.90;;;;;;5031321;28;20452;-37
2022/10/04 06:08:07;;;;;;;4.50;4.07;;;10.80;99.90;;;;;;5031548;28;21014;-37
2022/10/04 06:11:08;;;;;;;6.23;4.30;;;10.70;99.90;;;;;;5032479;28;20420;-37
2022/10/04 06:14:09;;;;;;;7.00;4.97;;;10.80;99.90;;;;;;5049508;28;20442;-37
2022/10/04 06:17:10;;;;;;;5.03;4.10;;;10.80;99.90;;;;;;5038112;28;20436;-37
2022/10/04 06:20:13;;;;;;;8.20;5.30;;;10.80;99.90;;;;;;5025780;28;20487;-37
2022/10/04 06:22:47;;;;;;;6.83;4.90;;;10.90;99.90;;;;;;5028606;28;20803;-37
2022/10/04 06:25:26;;;;;;;5.43;4.70;;;10.90;99.90;;;;;;5030941;28;20451;-37
2022/10/04 06:28:17;;;;;;;7.63;4.53;;;11.00;99.90;;;;;;5030474;28;20499;-37
2022/10/04 06:31:01;;;;;;;5.30;4.90;;;11.10;99.90;;;;;;5031353;28;20420;-37
2022/10/04 06:33:32;;;;;;;5.30;4.80;;;11.10;99.90;;;;;;5028789;28;20409;-37
2022/10/04 06:36:30;;;;;;;7.43;4.70;;;11.10;99.90;;;;;;5031481;28;20469;-37
2022/10/04 06:39:14;;;;;;;6.17;4.50;;;11.20;99.90;;;;;;5030161;28;20409;-37
2022/10/04 06:42:12;;;;;;;5.27;4.77;;;11.30;99.90;;;;;;5032165;28;20429;-37
2022/10/04 06:44:56;;;;;;;11.40;5.13;;;11.30;99.90;;;;;;5009472;28;20526;-37
2022/10/04 06:47:45;;;;;;;7.20;5.00;;;11.30;99.90;;;;;;5025914;28;20417;-37
2022/10/04 06:50:23;;;;;;;8.13;4.57;;;11.40;99.90;;;;;;5029493;28;20428;-37
2022/10/04 06:53:15;;;;;;;8.63;5.50;;;11.40;99.90;;;;;;5027933;28;20445;-37
2022/10/04 06:56:25;;;;;;;7.50;4.63;;;11.40;99.90;;;;;;5029204;28;20532;-37
2022/10/04 06:58:59;;;;;;;8.90;5.27;;;11.50;99.90;;;;;;5037171;28;21053;-37
2022/10/04 07:01:34;;;;;;;10.13;4.70;;;11.50;99.90;;;;;;5050412;28;20454;-37
2022/10/04 07:04:21;;;;;;;6.00;5.07;;;11.60;99.90;;;;;;5049995;28;20488;-37
2022/10/04 07:07:22;;;;;;;8.93;4.43;;;11.60;99.90;;;;;;5047235;28;20444;-37
2022/10/04 07:09:42;;;;;;;8.20;5.10;;;11.70;99.90;;;;;;5017366;28;20504;-37
2022/10/04 07:12:16;;;;;;;5.57;4.67;;;11.70;99.90;;;;;;5043830;28;20471;-37
2022/10/04 07:14:51;;;;;;;8.33;5.00;;;11.80;99.90;;;;;;5049736;28;20460;-37
2022/10/04 07:17:25;;;;;;;6.10;4.63;;;11.80;99.90;;;;;;5050059;28;20424;-37
2022/10/04 07:19:53;;;;;;;7.83;5.10;;;11.90;99.90;;;;;;5049976;28;20486;-37
2022/10/04 07:23:01;;;;;;;5.80;5.30;;;11.90;99.90;;;;;;5031738;28;20424;-37
2022/10/04 07:25:30;;;;;;;6.37;5.13;;;12.00;99.90;;;;;;5016835;28;20440;-37
2022/10/04 07:31:02;;;;;;;7.10;5.13;;;12.10;99.90;;;;;;5049401;28;20440;-37
2022/10/04 07:33:30;;;;;;;5.50;5.00;;;12.20;99.90;;;;;;5049306;28;20510;-38
2022/10/04 07:36:12;;;;;;;7.70;5.77;;;12.30;99.90;;;;;;5049951;28;20460;-37
2022/10/04 07:38:57;;;;;;;5.97;4.73;;;12.50;99.90;;;;;;5049542;28;20419;-37
2022/10/04 07:41:53;;;;;;;9.57;5.70;;;12.60;99.90;;;;;;5036559;28;20452;-37
2022/10/04 07:44:38;;;;;;;8.03;5.87;;;12.70;99.90;;;;;;5028315;28;20936;-38
2022/10/04 07:47:26;;;;;;;7.93;5.60;;;12.80;99.90;;;;;;5029756;28;20803;-37
2022/10/04 07:49:53;;;;;;;9.67;5.30;;;12.90;99.90;;;;;;5030008;28;20424;-38
2022/10/04 07:52:30;;;;;;;7.67;5.33;;;12.90;99.90;;;;;;5029779;28;20471;-37
2022/10/04 07:55:12;;;;;;;7.50;4.87;;;13.00;99.90;;;;;;5028323;28;20456;-37
2022/10/04 07:57:46;;;;;;;8.60;5.30;;;13.00;99.90;;;;;;5029913;28;20882;-37
2022/10/04 08:00:21;;;;;;;6.70;5.10;;;13.00;99.90;;;;;;5029835;28;20825;-38
2022/10/04 08:03:07;;;;;;;7.43;5.67;;;13.00;99.90;;;;;;5029167;28;20488;-37
2022/10/04 08:05:42;;;;;;;9.40;6.50;;;13.00;99.90;;;;;;5029449;28;20980;-37
2022/10/04 08:08:07;;;;;;;12.90;5.80;;;13.10;99.90;;;;;;5029808;28;20750;-38
2022/10/04 08:10:43;;;;;;;9.33;5.23;;;13.20;99.90;;;;;;5029568;28;20516;-38
2022/10/04 08:13:26;;;;;;;10.43;6.20;;;13.20;99.90;;;;;;5029140;28;20269;-37
2022/10/04 08:15:57;;;;;;;7.70;5.90;;;13.20;99.90;;;;;;5029529;28;20590;-37
2022/10/04 08:18:51;;;;;;;6.80;5.50;;;13.30;99.90;;;;;;5029494;28;20487;-38
2022/10/04 08:21:25;;;;;;;8.97;5.67;;;13.30;99.90;;;;;;5035361;28;20461;-37
2022/10/04 08:24:17;;;;;;;6.50;4.70;;;13.40;99.90;;;;;;5029019;28;20639;-37
2022/10/04 08:27:19;;;;;;;5.10;4.60;;;13.60;99.90;;;;;;5029448;28;20479;-37
2022/10/04 08:30:03;;;;;;;10.03;5.07;;;13.70;99.90;;;;;;5029584;28;20423;-37
2022/10/04 08:33:00;;;;;;;7.77;4.80;;;13.90;99.90;;;;;;5029344;28;20413;-38
2022/10/04 08:35:35;;;;;;;6.47;4.57;;;13.80;99.90;;;;;;5016832;28;20480;-37
2022/10/04 08:38:07;;;;;;;5.57;5.03;;;14.00;99.90;;;;;;5029350;28;20432;-37
2022/10/04 08:40:35;;;;;;;7.17;4.93;;;14.00;99.90;;;;;;5024430;28;20529;-37
2022/10/04 08:43:01;;;;;;;8.33;5.00;;;14.20;99.90;;;;;;5028862;28;20421;-38
2022/10/04 08:45:55;;;;;;;8.80;4.20;;;14.30;99.90;;;;;;5032183;28;20421;-38
2022/10/04 08:48:39;;;;;;;10.90;5.40;;;14.60;99.90;;;;;;5031867;28;20264;-38
2022/10/04 08:51:23;;;;;;;7.80;4.90;;;14.70;99.90;;;;;;5031901;28;20417;-37
2022/10/04 08:54:07;;;;;;;5.97;4.23;;;14.90;99.90;;;;;;5031653;28;20451;-37
2022/10/04 08:57:14;;;;;;;5.77;4.57;;;15.10;99.90;;;;;;5032701;28;20770;-37
2022/10/04 08:59:58;;;;;;;6.73;5.50;;;15.30;99.90;;;;;;5031782;28;20420;-37
2022/10/04 09:02:58;;;;;;;11.23;4.30;;;15.50;99.90;;;;;;5032652;28;20432;-38
2022/10/04 09:05:57;;;;;;;6.70;4.63;;;15.60;99.90;;;;;;5032809;28;20453;-38
2022/10/04 09:08:32;;;;;;;7.13;4.70;;;15.80;99.90;;;;;;5032693;28;20431;-38
2022/10/04 09:11:35;;;;;;;4.80;4.00;;;15.90;99.90;;;;;;5032523;28;20417;-37
2022/10/04 09:14:32;;;;;;;6.60;4.50;;;16.00;99.90;;;;;;5031872;28;20451;-38
2022/10/04 09:17:19;;;;;;;7.33;5.00;;;16.10;99.90;;;;;;5031360;28;20425;-37
2022/10/04 09:20:00;;;;;;;4.83;4.33;;;16.30;99.90;;;;;;5035706;28;20416;-37
2022/10/04 09:22:41;;;;;;;8.10;4.97;;;16.40;99.90;;;;;;5033638;28;20782;-37
2022/10/04 09:25:33;;;;;;;4.33;3.60;;;16.40;99.90;;;;;;5032443;28;20421;-38
2022/10/04 09:28:28;;;;;;;9.10;4.70;;;16.50;99.90;;;;;;5032369;28;20417;-38
2022/10/04 09:31:17;;;;;;;5.40;4.20;;;16.60;99.90;;;;;;5032334;28;20425;-37
2022/10/04 09:34:16;;;;;;;4.40;4.00;;;16.80;99.90;;;;;;5017590;28;20433;-38
2022/10/04 09:36:53;;;;;;;7.03;4.70;;;17.00;99.90;;;;;;5032019;28;20429;-38
2022/10/04 09:39:51;;;;;;;6.97;4.67;;;17.10;99.90;;;;;;5032102;28;20417;-37
2022/10/04 09:42:42;;;;;;;7.07;4.50;;;17.20;99.90;;;;;;5032161;28;20503;-37
2022/10/04 09:45:46;;;;;;;5.33;4.13;;;17.30;99.90;;;;;;5030698;28;20433;-37
2022/10/04 09:48:31;;;;;;;5.43;4.10;;;17.30;99.90;;;;;;5031761;28;20807;-37
2022/10/04 09:51:14;;;;;;;5.27;3.87;;;17.40;99.90;;;;;;5030991;28;20417;-38
2022/10/04 09:53:51;;;;;;;7.10;4.30;;;17.50;99.90;;;;;;5030131;28;20413;-38
2022/10/04 09:56:38;;;;;;;5.53;3.40;;;17.60;99.90;;;;;;5031414;28;20506;-38
2022/10/04 09:59:29;;;;;;;9.00;4.40;;;17.60;99.90;;;;;;5031781;28;20420;-38
2022/10/04 10:02:25;;;;;;;7.43;4.40;;;17.50;99.90;;;;;;5031626;28;20471;-37
2022/10/04 10:05:11;;;;;;;6.60;4.17;;;17.50;99.90;;;;;;5031208;28;20459;-37
2022/10/04 10:07:52;;;;;;;5.43;4.07;;;17.50;99.90;;;;;;5031102;28;20934;-37
2022/10/04 10:14:03;;;;;;;3.80;3.23;;;17.70;99.90;;;;;;5029464;28;20444;-38
2022/10/04 10:17:07;;;;;;;5.20;4.00;;;17.80;99.90;;;;;;5031491;28;20463;-37
2022/10/04 10:19:35;;;;;;;9.10;4.40;;;17.80;99.90;;;;;;5029895;28;20413;-37
2022/10/04 10:22:29;;;;;;;6.27;4.33;;;17.90;99.90;;;;;;5032910;28;20956;-37
2022/10/04 10:24:59;;;;;;;5.70;3.63;;;17.80;99.90;;;;;;5021863;28;20483;-37
2022/10/04 10:28:10;;;;;;;5.23;3.90;;;17.50;99.90;;;;;;5029627;28;20414;-37
2022/10/04 10:30:44;;;;;;;4.97;3.70;;;17.20;99.90;;;;;;5023558;28;20425;-37
2022/10/04 10:33:19;;;;;;;5.40;3.90;;;17.10;99.90;;;;;;5023329;28;20518;-37
2022/10/04 10:36:06;;;;;;;4.73;3.27;;;17.10;99.90;;;;;;5029464;28;20831;-37
2022/10/04 10:39:06;;;;;;;5.93;3.80;;;17.20;99.90;;;;;;5030867;28;20425;-37
2022/10/04 10:41:34;;;;;;;5.17;3.90;;;17.30;99.90;;;;;;5031010;28;21104;-37
2022/10/04 10:44:09;;;;;;;8.53;4.07;;;17.40;99.90;;;;;;5028607;28;20432;-37
2022/10/04 10:46:37;;;;;;;6.33;3.60;;;17.30;99.90;;;;;;5030842;28;20472;-38
2022/10/04 10:49:34;;;;;;;4.57;3.70;;;17.40;99.90;;;;;;5029520;28;20426;-37
2022/10/04 10:52:12;;;;;;;5.63;3.73;;;17.40;99.90;;;;;;5030736;28;20425;-37
2022/10/04 10:55:08;;;;;;;4.73;3.53;;;17.40;99.90;;;;;;5028854;28;20468;-37
2022/10/04 10:58:07;;;;;;;5.67;4.00;;;17.30;99.90;;;;;;5026342;28;20428;-37
2022/10/04 11:00:51;;;;;;;6.20;4.07;;;17.30;99.90;;;;;;5030572;28;20429;-37
2022/10/04 11:03:32;;;;;;;5.60;3.67;;;17.40;99.90;;;;;;5030120;28;20423;-38
2022/10/04 11:06:29;;;;;;;5.87;3.83;;;17.50;99.90;;;;;;5028758;28;20447;-38
2022/10/04 11:09:27;;;;;;;3.40;3.10;;;17.60;99.90;;;;;;5029425;28;21034;-38
2022/10/04 11:11:59;;;;;;;4.63;3.27;;;17.70;99.90;;;;;;5029334;28;20456;-38
2022/10/04 11:14:55;;;;;;;4.30;3.43;;;17.90;99.90;;;;;;5029658;28;20457;-38
2022/10/04 11:17:36;;;;;;;5.60;3.30;;;18.00;99.90;;;;;;5030119;28;20433;-38
2022/10/04 11:20:23;;;;;;;6.60;3.23;;;18.10;99.90;;;;;;5035633;28;20423;-37
2022/10/04 11:23:13;;;;;;;4.23;2.60;;;18.20;99.90;;;;;;5016952;28;20417;-38
2022/10/04 11:25:56;;;;;;;3.70;2.80;;;18.30;99.90;;;;;;5029969;28;20490;-38
2022/10/04 11:28:25;;;;;;;4.13;2.93;;;18.40;99.90;;;;;;5030213;28;20425;-38
2022/10/04 11:31:09;;;;;;;4.10;3.17;;;18.50;99.90;;;;;;5030131;28;20500;-37
2022/10/04 11:33:58;;;;;;;3.87;2.90;;;18.60;99.90;;;;;;5029533;28;20435;-37
2022/10/04 11:36:32;;;;;;;3.97;2.93;;;18.70;99.90;;;;;;5028605;28;20444;-38
2022/10/04 11:39:32;;;;;;;4.40;3.00;;;18.80;99.90;;;;;;5030201;28;20744;-38
2022/10/04 11:42:55;;;;;;;3.17;2.77;;;18.90;99.90;;;;;;5029874;28;20428;-37
2022/10/04 11:45:35;;;;;;;3.67;2.70;;;19.00;99.90;;;;;;5028342;28;20976;-38
2022/10/04 11:48:17;;;;;;;4.90;3.20;;;19.10;99.90;;;;;;5045067;28;20649;-38
2022/10/04 11:51:29;;;;;;;4.23;3.03;;;19.20;99.90;;;;;;5029767;28;20409;-37
2022/10/04 11:54:07;;;;;;;3.97;2.80;;;19.30;99.90;;;;;;5028709;28;20765;-38
2022/10/04 11:56:44;;;;;;;5.07;2.70;;;19.30;99.90;;;;;;5029304;28;20959;-38
2022/10/04 11:59:36;;;;;;;7.20;3.10;;;19.40;99.90;;;;;;5029785;28;20941;-39
2022/10/04 12:02:49;;;;;;;3.53;2.70;;;19.50;99.90;;;;;;5029685;28;20453;-38
2022/10/04 12:05:46;;;;;;;3.40;2.67;;;19.50;99.90;;;;;;5028223;28;20441;-38
2022/10/04 12:08:23;;;;;;;6.27;3.00;;;19.70;99.90;;;;;;5029741;28;20825;-38
2022/10/04 12:11:23;;;;;;;4.27;2.57;;;19.70;99.50;;;;;;5029797;28;20459;-37
2022/10/04 12:14:23;;;;;;;2.90;2.50;;;19.80;99.50;;;;;;5029006;28;20428;-38
2022/10/04 12:17:00;;;;;;;4.63;3.20;;;19.90;99.00;;;;;;5045033;28;20849;-37
2022/10/04 12:19:44;;;;;;;3.00;2.20;;;19.90;98.40;;;;;;5034194;28;20419;-38
2022/10/04 12:22:27;;;;;;;4.20;2.47;;;19.90;97.60;;;;;;5037610;28;20405;-37
2022/10/04 12:24:57;;;;;;;3.80;2.40;;;19.90;98.40;;;;;;5033168;28;20425;-37
2022/10/04 12:27:49;;;;;;;3.83;2.27;;;20.00;97.80;;;;;;5033224;28;20413;-37
2022/10/04 12:30:29;;;;;;;3.50;2.30;;;19.90;97.40;;;;;;5033253;28;20417;-38
2022/10/04 12:33:11;;;;;;;3.77;2.70;;;19.90;97.30;;;;;;5032698;28;20432;-38
2022/10/04 12:35:39;;;;;;;3.03;2.47;;;19.90;97.90;;;;;;5033477;28;20461;-37
2022/10/04 12:38:20;;;;;;;4.30;2.60;;;20.00;98.00;;;;;;5033086;28;20432;-38
2022/10/04 12:41:15;;;;;;;2.93;2.50;;;19.90;98.00;;;;;;5033103;28;20417;-37
2022/10/04 12:44:02;;;;;;;5.73;2.60;;;19.90;98.40;;;;;;5032533;28;20466;-38
2022/10/04 12:46:56;;;;;;;2.80;2.30;;;20.00;98.60;;;;;;5033163;28;20408;-37
2022/10/04 12:50:02;;;;;;;3.03;2.07;;;20.00;97.60;;;;;;5020256;28;21143;-39
2022/10/04 12:52:58;;;;;;;5.03;2.50;;;20.00;97.30;;;;;;5024470;28;20421;-37
2022/10/04 12:55:54;;;;;;;3.10;2.30;;;20.00;96.60;;;;;;5031371;28;20607;-38
2022/10/04 12:58:29;;;;;;;5.07;2.27;;;19.90;96.70;;;;;;5020166;28;20490;-37
2022/10/04 13:01:04;;;;;;;5.67;2.27;;;20.00;97.10;;;;;;5032742;28;20420;-37
2022/10/04 13:04:01;;;;;;;2.10;1.90;;;20.00;97.80;;;;;;5032144;28;20417;-38
2022/10/04 13:06:29;;;;;;;2.87;2.67;;;20.00;96.40;;;;;;5032755;28;20583;-37
2022/10/04 13:09:08;;;;;;;3.90;2.17;;;20.00;96.90;;;;;;5032607;28;20944;-39
2022/10/04 13:12:08;;;;;;;5.53;2.70;;;20.00;97.40;;;;;;5032724;28;20471;-37
2022/10/04 13:14:51;;;;;;;3.70;2.50;;;19.90;97.70;;;;;;5030298;28;20967;-38
2022/10/04 13:17:26;;;;;;;3.00;2.70;;;19.80;96.80;;;;;;5031309;28;20549;-37
2022/10/04 13:20:24;;;;;;;3.70;2.30;;;19.80;96.60;;;;;;5035183;28;20418;-37
2022/10/04 13:23:07;;;;;;;4.70;2.77;;;19.80;96.70;;;;;;5011166;28;20429;-37
2022/10/04 13:25:44;;;;;;;3.97;2.53;;;19.80;97.20;;;;;;5032136;28;20424;-37
2022/10/04 13:28:30;;;;;;;2.90;2.60;;;19.90;97.40;;;;;;5032339;28;20424;-37
2022/10/04 13:31:00;;;;;;;3.73;2.13;;;19.90;96.00;;;;;;5032390;28;20870;-37
2022/10/04 13:33:47;;;;;;;3.77;2.20;;;19.90;96.60;;;;;;5030504;28;20424;-37
2022/10/04 13:36:45;;;;;;;3.90;2.00;;;19.90;95.70;;;;;;5032093;28;20464;-37
2022/10/04 13:39:41;;;;;;;2.47;1.97;;;19.90;95.50;;;;;;5032091;28;20417;-37
2022/10/04 13:42:13;;;;;;;5.03;2.67;;;19.80;95.80;;;;;;5032237;28;20417;-38
2022/10/04 13:45:22;;;;;;;3.13;2.30;;;19.80;96.10;;;;;;5031598;28;20413;-37
2022/10/04 13:48:07;;;;;;;2.67;2.27;;;19.80;97.10;;;;;;5031983;28;20428;-37
2022/10/04 13:50:41;;;;;;;2.50;1.97;;;19.90;97.30;;;;;;5031842;28;20421;-38
2022/10/04 13:56:35;;;;;;;2.20;1.87;;;19.90;97.00;;;;;;5030750;28;20870;-37
2022/10/04 13:59:35;;;;;;;2.53;2.00;;;19.90;96.20;;;;;;5031854;28;20429;-37
2022/10/04 14:02:22;;;;;;;2.00;1.80;;;19.80;95.90;;;;;;5031554;28;20475;-37
2022/10/04 14:04:48;;;;;;;4.60;2.60;;;19.80;95.50;;;;;;5029927;28;20445;-38
2022/10/04 14:07:31;;;;;;;5.77;2.27;;;19.80;96.60;;;;;;5030287;28;20424;-37